Time;durP1;ratioP1;P1;durP2;ratioP2;P2;SDS_P1;SDS_P2;PMS_P1;PMS_P2;Temp;Humidity;BMP_temperature;BMP_pressure;BME280_temperature;BME280_humidity;BME280_pressure;Samples;Min_cycle;Max_cycle;Signal;HPM_P1;HPM_P2
2023/01/12 00:01:30;;;;;;;2.22;1.40;;;17.60;87.60;;;;;;5031025;28;20348;-64
2023/01/12 00:04:18;;;;;;;3.78;1.35;;;17.60;87.70;;;;;;5031590;28;20198;-66
2023/01/12 00:07:09;;;;;;;2.72;1.58;;;17.50;87.70;;;;;;5032186;28;20225;-62
2023/01/12 00:09:57;;;;;;;1.55;1.45;;;17.50;87.50;;;;;;5035777;28;20218;-66
2023/01/12 00:12:45;;;;;;;4.45;1.45;;;17.40;88.10;;;;;;5035149;28;20641;-67
2023/01/12 00:16:33;;;;;;;2.90;1.40;;;17.40;88.50;;;;;;5035576;28;20280;-64
2023/01/12 00:18:46;;;;;;;4.30;1.50;;;17.30;88.60;;;;;;5034131;28;20225;-65
2023/01/12 00:21:42;;;;;;;1.77;1.40;;;17.40;88.70;;;;;;5035668;28;20222;-67
2023/01/12 00:24:33;;;;;;;2.67;1.23;;;17.40;88.90;;;;;;5034827;28;20234;-65
2023/01/12 00:27:22;;;;;;;2.03;1.30;;;17.40;88.90;;;;;;5034455;28;20673;-68
2023/01/12 00:30:11;;;;;;;3.08;1.38;;;17.30;88.70;;;;;;5033738;28;20649;-67
2023/01/12 00:32:59;;;;;;;2.42;1.23;;;17.50;88.80;;;;;;5035198;28;20202;-66
2023/01/12 00:35:47;;;;;;;2.75;2.22;;;17.50;89.50;;;;;;5034942;28;20292;-66
2023/01/12 00:38:35;;;;;;;1.67;1.38;;;17.70;98.30;;;;;;5034447;28;20198;-65
2023/01/12 00:47:38;;;;;;;2.33;1.58;;;17.30;88.00;;;;;;5034821;28;20198;-66
2023/01/12 00:50:26;;;;;;;4.68;1.40;;;17.50;88.20;;;;;;5034258;28;20361;-64
2023/01/12 00:53:15;;;;;;;2.83;1.50;;;17.50;88.10;;;;;;5034107;28;20743;-68
2023/01/12 00:56:04;;;;;;;1.40;1.30;;;17.50;87.90;;;;;;5034184;28;20292;-66
2023/01/12 00:58:54;;;;;;;1.23;1.08;;;17.70;88.00;;;;;;5033941;28;20363;-65
2023/01/12 01:01:42;;;;;;;3.55;1.77;;;17.70;87.80;;;;;;5034031;28;20356;-65
2023/01/12 01:04:30;;;;;;;2.33;1.95;;;17.60;87.60;;;;;;5034593;28;20392;-67
2023/01/12 01:07:20;;;;;;;2.33;1.70;;;17.70;87.00;;;;;;5034438;28;20336;-65
2023/01/12 01:10:09;;;;;;;1.90;1.40;;;17.80;86.90;;;;;;5033472;28;20213;-65
2023/01/12 01:12:57;;;;;;;3.30;1.73;;;17.70;86.80;;;;;;5035005;28;20408;-67
2023/01/12 01:15:47;;;;;;;3.33;1.80;;;17.60;86.80;;;;;;5034773;28;20206;-69
2023/01/12 01:18:35;;;;;;;2.35;1.30;;;17.50;97.90;;;;;;5032874;28;20605;-68
2023/01/12 01:21:24;;;;;;;1.45;1.35;;;17.70;87.70;;;;;;5033850;28;20220;-68
2023/01/12 01:24:14;;;;;;;3.03;1.40;;;17.60;87.70;;;;;;5034202;28;20202;-66
2023/01/12 01:27:02;;;;;;;3.03;1.65;;;17.50;87.60;;;;;;5033789;28;20291;-66
2023/01/12 01:29:50;;;;;;;2.00;1.33;;;17.40;87.50;;;;;;5033592;28;20266;-66
2023/01/12 01:32:39;;;;;;;3.35;1.38;;;17.50;87.70;;;;;;5033584;28;20224;-64
2023/01/12 01:35:27;;;;;;;3.92;1.25;;;17.50;87.60;;;;;;5033919;28;20281;-67
2023/01/12 01:38:16;;;;;;;2.63;1.33;;;17.40;87.50;;;;;;5033297;28;20655;-67
2023/01/12 01:41:05;;;;;;;1.42;1.20;;;17.30;87.80;;;;;;5032831;28;20765;-65
2023/01/12 01:43:57;;;;;;;1.58;1.35;;;17.50;88.10;;;;;;5033110;28;20667;-66
2023/01/12 01:46:49;;;;;;;1.77;1.20;;;17.50;88.40;;;;;;5033921;28;20340;-66
2023/01/12 01:49:42;;;;;;;2.88;1.17;;;17.50;88.50;;;;;;5033916;28;20236;-66
2023/01/12 01:52:34;;;;;;;1.33;1.10;;;17.40;88.40;;;;;;5033488;28;20654;-67
2023/01/12 01:55:26;;;;;;;2.78;1.35;;;17.40;88.30;;;;;;5032857;28;20224;-67
2023/01/12 01:58:17;;;;;;;3.58;1.40;;;17.40;88.30;;;;;;5034168;28;20194;-65
2023/01/12 02:01:06;;;;;;;1.33;1.23;;;17.50;88.40;;;;;;5032989;28;20221;-68
2023/01/12 02:03:55;;;;;;;1.63;1.20;;;17.50;88.20;;;;;;5033525;28;20195;-68
2023/01/12 02:06:45;;;;;;;1.45;1.13;;;17.50;88.20;;;;;;5033394;28;20214;-68
2023/01/12 02:09:33;;;;;;;1.80;1.10;;;17.50;88.10;;;;;;5032567;28;20222;-66
2023/01/12 02:18:45;;;;;;;1.52;1.10;;;17.70;98.40;;;;;;5032945;28;20200;-68
2023/01/12 02:21:57;;;;;;;2.28;1.88;;;17.70;87.70;;;;;;5032844;28;20297;-65
2023/01/12 02:25:02;;;;;;;2.42;1.55;;;17.70;87.70;;;;;;5032919;28;20194;-67
2023/01/12 02:28:07;;;;;;;2.40;1.40;;;17.80;87.60;;;;;;5033038;28;20295;-67
2023/01/12 02:31:25;;;;;;;2.33;1.38;;;17.80;87.50;;;;;;5033141;28;20293;-66
2023/01/12 02:34:25;;;;;;;4.22;1.70;;;17.70;87.30;;;;;;5032752;28;20204;-68
2023/01/12 02:37:20;;;;;;;2.28;1.33;;;17.90;87.40;;;;;;5026856;28;20290;-63
2023/01/12 02:40:14;;;;;;;4.22;1.23;;;17.90;87.30;;;;;;5032743;28;20233;-67
2023/01/12 02:43:08;;;;;;;2.00;1.10;;;17.90;87.20;;;;;;5033118;28;20308;-64
2023/01/12 02:46:02;;;;;;;1.52;1.42;;;17.80;87.10;;;;;;5033248;28;20285;-65
2023/01/12 02:48:56;;;;;;;1.50;0.90;;;17.90;87.10;;;;;;5031336;28;20776;-65
2023/01/12 02:51:49;;;;;;;4.07;1.48;;;17.90;87.00;;;;;;5032629;28;20198;-65
2023/01/12 02:54:40;;;;;;;2.72;1.25;;;17.80;86.80;;;;;;5031732;28;20348;-69
2023/01/12 02:57:30;;;;;;;2.03;1.00;;;17.80;86.60;;;;;;5032538;28;20237;-64
2023/01/12 03:00:19;;;;;;;2.10;1.20;;;17.80;86.80;;;;;;5031398;28;20601;-64
2023/01/12 03:03:07;;;;;;;1.65;1.55;;;17.70;87.00;;;;;;5032192;28;20378;-67
2023/01/12 03:05:59;;;;;;;1.85;1.20;;;17.70;87.00;;;;;;5031493;28;20206;-66
2023/01/12 03:08:49;;;;;;;2.30;1.02;;;17.60;87.20;;;;;;5031134;28;20222;-66
2023/01/12 03:11:40;;;;;;;1.38;1.10;;;17.60;87.40;;;;;;5031586;28;20198;-64
2023/01/12 03:14:30;;;;;;;1.90;0.90;;;17.60;87.50;;;;;;5031226;28;20268;-66
2023/01/12 03:17:27;;;;;;;2.08;1.23;;;17.60;87.70;;;;;;5032237;28;20750;-68
2023/01/12 03:20:19;;;;;;;1.83;0.93;;;17.50;87.70;;;;;;5031073;28;20300;-65
2023/01/12 03:23:12;;;;;;;1.23;1.10;;;17.50;87.80;;;;;;5032506;28;20232;-65
2023/01/12 03:26:02;;;;;;;1.52;1.02;;;17.40;87.80;;;;;;5031882;28;20680;-67
2023/01/12 03:28:58;;;;;;;1.40;1.00;;;17.40;87.80;;;;;;5030612;28;20306;-65
2023/01/12 03:31:46;;;;;;;1.25;0.98;;;17.40;88.00;;;;;;5030894;28;20202;-66
2023/01/12 03:34:36;;;;;;;2.15;0.93;;;17.40;88.00;;;;;;5031449;28;20198;-65
2023/01/12 03:37:30;;;;;;;2.22;1.00;;;17.40;88.00;;;;;;5031048;28;20205;-68
2023/01/12 03:40:23;;;;;;;1.33;1.20;;;17.40;88.10;;;;;;5030385;28;20694;-66
2023/01/12 03:43:15;;;;;;;0.93;0.82;;;17.40;87.90;;;;;;5037852;28;20221;-67
2023/01/12 03:46:10;;;;;;;1.38;1.27;;;17.50;87.90;;;;;;5037876;28;20340;-65
2023/01/12 03:49:04;;;;;;;1.77;1.02;;;17.50;87.80;;;;;;5037568;28;20225;-68
2023/01/12 03:51:54;;;;;;;0.93;0.93;;;17.40;87.20;;;;;;5037892;28;20277;-67
2023/01/12 03:54:43;;;;;;;2.20;0.98;;;17.50;87.70;;;;;;5037715;28;20281;-65
2023/01/12 03:57:34;;;;;;;1.38;1.00;;;17.40;87.20;;;;;;5038882;28;20332;-64
2023/01/12 04:00:24;;;;;;;1.83;1.10;;;17.40;87.30;;;;;;5038202;28;20217;-67
2023/01/12 04:03:15;;;;;;;1.92;1.00;;;17.40;87.40;;;;;;5037651;28;20321;-65
2023/01/12 04:06:03;;;;;;;1.23;1.00;;;17.40;87.70;;;;;;5037978;28;20228;-67
2023/01/12 04:08:51;;;;;;;0.90;0.90;;;17.40;87.80;;;;;;5037560;28;20360;-65
2023/01/12 04:14:47;;;;;;;0.90;0.80;;;17.40;87.70;;;;;;5039007;28;20260;-66
2023/01/12 04:17:35;;;;;;;1.80;1.00;;;17.50;87.90;;;;;;5037620;28;20198;-67
2023/01/12 04:20:23;;;;;;;1.42;1.02;;;17.40;87.90;;;;;;5036489;28;20311;-66
2023/01/12 04:23:10;;;;;;;2.00;1.02;;;17.40;88.00;;;;;;5037378;28;20254;-67
2023/01/12 04:25:58;;;;;;;1.25;0.90;;;17.30;88.10;;;;;;5037507;28;20289;-67
2023/01/12 04:28:46;;;;;;;2.30;0.90;;;16.60;87.40;;;;;;5037269;28;20218;-66
2023/01/12 04:31:36;;;;;;;2.28;1.05;;;17.30;87.60;;;;;;5037856;28;20220;-67
2023/01/12 04:34:24;;;;;;;1.55;1.10;;;17.30;88.30;;;;;;5036912;28;20190;-66
2023/01/12 04:37:12;;;;;;;2.08;1.23;;;17.30;88.30;;;;;;5038646;28;20205;-67
2023/01/12 04:40:00;;;;;;;3.22;1.23;;;17.30;88.30;;;;;;5038371;28;20246;-67
2023/01/12 04:43:03;;;;;;;2.40;1.05;;;17.30;88.10;;;;;;5037386;28;20336;-67
2023/01/12 04:45:54;;;;;;;4.13;1.10;;;17.30;88.10;;;;;;5037508;28;20208;-65
2023/01/12 04:48:44;;;;;;;1.55;1.00;;;17.30;88.00;;;;;;5037212;28;20226;-67
2023/01/12 04:51:32;;;;;;;0.90;0.90;;;17.30;87.70;;;;;;5036474;28;20205;-66
2023/01/12 04:54:20;;;;;;;0.98;0.82;;;17.40;87.70;;;;;;5033401;28;20233;-67
2023/01/12 04:57:08;;;;;;;4.82;1.10;;;17.40;87.80;;;;;;5035197;28;20549;-65
2023/01/12 04:59:56;;;;;;;1.70;1.10;;;17.40;87.80;;;;;;5033198;28;20228;-66
2023/01/12 05:02:44;;;;;;;1.48;0.80;;;17.40;87.80;;;;;;5034029;28;20637;-67
2023/01/12 05:05:35;;;;;;;1.00;0.90;;;17.40;87.70;;;;;;5033875;28;20233;-67
2023/01/12 05:11:29;;;;;;;1.50;0.82;;;17.40;87.70;;;;;;5034949;28;20209;-66
2023/01/12 05:14:17;;;;;;;2.45;1.00;;;17.50;87.70;;;;;;5033781;28;20671;-67
2023/01/12 05:17:05;;;;;;;0.90;0.85;;;17.40;87.70;;;;;;5033904;28;20198;-64
2023/01/12 05:19:53;;;;;;;1.08;0.90;;;17.40;87.70;;;;;;5033305;28;20595;-67
2023/01/12 05:22:43;;;;;;;1.27;0.90;;;17.40;87.70;;;;;;5035140;28;20351;-66
2023/01/12 05:25:31;;;;;;;1.88;0.85;;;17.40;87.80;;;;;;5033607;28;20205;-67
2023/01/12 05:28:19;;;;;;;1.00;0.82;;;17.30;87.70;;;;;;5033562;28;20205;-67
2023/01/12 05:31:10;;;;;;;1.73;0.90;;;17.20;87.70;;;;;;5034353;28;20210;-66
2023/01/12 05:33:58;;;;;;;1.63;1.00;;;17.30;87.90;;;;;;5033400;28;20201;-67
2023/01/12 05:36:46;;;;;;;1.38;1.10;;;17.30;88.00;;;;;;5034066;28;20253;-63
2023/01/12 05:39:35;;;;;;;2.28;0.88;;;17.30;88.10;;;;;;5033229;28;20293;-66
2023/01/12 05:45:29;;;;;;;2.13;1.35;;;17.20;88.10;;;;;;5034394;28;20389;-66
2023/01/12 05:48:17;;;;;;;3.10;0.90;;;17.20;88.10;;;;;;5034525;28;20677;-66
2023/01/12 05:51:07;;;;;;;4.07;0.98;;;17.20;88.10;;;;;;5032704;28;20785;-64
2023/01/12 05:53:57;;;;;;;0.82;0.80;;;17.30;88.10;;;;;;5033495;28;20194;-64
2023/01/12 05:56:46;;;;;;;1.00;0.90;;;17.30;88.10;;;;;;5032993;28;20292;-67
2023/01/12 05:59:36;;;;;;;1.13;0.85;;;17.30;88.10;;;;;;5031924;28;20221;-67
2023/01/12 06:02:24;;;;;;;2.30;1.23;;;16.60;87.20;;;;;;5033004;28;20210;-67
2023/01/12 06:05:12;;;;;;;3.42;1.20;;;17.40;88.00;;;;;;5032446;28;20205;-67
2023/01/12 06:08:01;;;;;;;1.30;0.90;;;17.40;87.80;;;;;;5032127;28;20284;-67
2023/01/12 06:10:49;;;;;;;1.65;0.80;;;17.40;87.80;;;;;;5032352;28;20679;-66
2023/01/12 06:13:56;;;;;;;2.28;0.90;;;17.40;87.70;;;;;;5032174;28;20225;-67
2023/01/12 06:16:44;;;;;;;4.00;1.30;;;17.40;87.70;;;;;;5032612;28;20287;-65
2023/01/12 06:19:32;;;;;;;1.92;1.00;;;17.40;87.70;;;;;;5032641;28;20660;-67
2023/01/12 06:22:20;;;;;;;2.80;0.90;;;17.40;87.60;;;;;;5032577;28;20678;-67
2023/01/12 06:25:09;;;;;;;2.50;1.10;;;17.40;87.30;;;;;;5033396;28;20206;-66
2023/01/12 06:27:57;;;;;;;3.22;1.80;;;17.40;87.70;;;;;;5032391;28;20206;-67
2023/01/12 06:30:55;;;;;;;2.05;0.90;;;17.30;87.40;;;;;;5032965;28;20611;-67
2023/01/12 06:33:43;;;;;;;2.20;1.13;;;17.30;87.80;;;;;;5032534;28;20678;-63
2023/01/12 06:36:31;;;;;;;3.47;0.95;;;17.20;88.00;;;;;;5032458;28;20229;-65
2023/01/12 06:39:19;;;;;;;3.13;0.82;;;17.20;88.20;;;;;;5031962;28;20228;-67
2023/01/12 06:45:13;;;;;;;2.97;1.13;;;17.10;88.10;;;;;;5030426;28;20698;-66
2023/01/12 06:48:03;;;;;;;3.83;1.60;;;17.20;88.30;;;;;;5031702;28;20276;-66
2023/01/12 06:50:51;;;;;;;3.42;1.13;;;17.20;88.30;;;;;;5030866;28;20710;-65
2023/01/12 06:53:39;;;;;;;7.80;1.58;;;17.20;88.30;;;;;;5031818;28;20281;-67
2023/01/12 06:56:27;;;;;;;6.90;1.33;;;17.20;88.20;;;;;;5028236;28;20216;-64
2023/01/12 06:59:15;;;;;;;3.83;1.20;;;17.30;88.20;;;;;;5031996;28;20349;-65
2023/01/12 07:02:03;;;;;;;2.38;1.27;;;17.30;88.10;;;;;;5024742;28;20233;-66
2023/01/12 07:04:53;;;;;;;3.33;1.15;;;17.30;88.00;;;;;;5030121;28;20230;-64
2023/01/12 07:07:42;;;;;;;4.95;1.10;;;17.40;88.00;;;;;;5031394;28;20212;-67
2023/01/12 07:10:31;;;;;;;3.03;1.33;;;17.40;87.90;;;;;;5031263;28;20218;-68
2023/01/12 07:13:19;;;;;;;4.93;1.20;;;17.50;87.80;;;;;;5031369;28;20210;-63
2023/01/12 07:16:08;;;;;;;3.50;0.95;;;17.50;87.60;;;;;;5030721;28;20282;-64
2023/01/12 07:18:57;;;;;;;1.88;1.00;;;17.50;87.40;;;;;;5031266;28;20264;-65
2023/01/12 07:21:48;;;;;;;3.40;1.40;;;17.60;87.40;;;;;;5030904;28;20299;-67
2023/01/12 07:24:36;;;;;;;8.75;2.00;;;17.60;87.30;;;;;;5030710;28;20296;-68
2023/01/12 07:27:25;;;;;;;5.68;1.15;;;17.60;87.20;;;;;;5031902;28;20243;-67
2023/01/12 07:30:13;;;;;;;2.80;1.05;;;17.60;87.30;;;;;;5030922;28;20262;-66
2023/01/12 07:33:07;;;;;;;2.08;1.25;;;17.60;87.30;;;;;;5031659;28;20285;-68
2023/01/12 07:35:58;;;;;;;3.10;1.30;;;17.50;87.20;;;;;;5030953;28;20264;-67
2023/01/12 07:38:47;;;;;;;5.60;1.60;;;17.50;87.40;;;;;;5031231;28;20222;-66
2023/01/12 07:44:41;;;;;;;4.30;1.30;;;17.50;87.50;;;;;;5032207;28;20257;-67
2023/01/12 07:47:29;;;;;;;3.45;1.30;;;17.50;87.60;;;;;;5030832;28;20659;-67
2023/01/12 07:50:17;;;;;;;6.40;1.70;;;17.50;87.70;;;;;;5030938;28;20766;-66
2023/01/12 07:53:05;;;;;;;11.23;1.73;;;17.50;87.70;;;;;;5031271;28;20308;-68
2023/01/12 07:55:54;;;;;;;6.50;1.88;;;17.40;87.80;;;;;;5031117;28;20281;-67
2023/01/12 07:58:43;;;;;;;6.53;1.70;;;17.40;88.10;;;;;;5025863;28;20226;-64
2023/01/12 08:01:31;;;;;;;3.65;1.50;;;17.40;88.20;;;;;;5030320;28;20209;-65
2023/01/12 08:04:21;;;;;;;6.55;1.85;;;17.30;88.20;;;;;;5031538;28;20214;-67
2023/01/12 08:07:09;;;;;;;4.88;2.10;;;17.30;88.20;;;;;;5030724;28;20683;-68
2023/01/12 08:09:57;;;;;;;15.13;2.20;;;17.30;88.30;;;;;;5029985;28;20222;-66
2023/01/12 08:12:50;;;;;;;6.40;2.20;;;17.30;88.20;;;;;;5030164;28;20292;-66
2023/01/12 08:15:43;;;;;;;6.32;2.30;;;17.40;88.30;;;;;;5030552;28;20194;-67
2023/01/12 08:18:35;;;;;;;10.55;2.70;;;17.50;96.20;;;;;;5030907;28;20202;-68
2023/01/12 08:21:27;;;;;;;8.77;2.10;;;17.40;88.30;;;;;;5029932;28;20285;-65
2023/01/12 08:24:19;;;;;;;13.63;2.33;;;17.40;88.10;;;;;;5030412;28;20776;-67
2023/01/12 08:27:09;;;;;;;12.30;3.20;;;17.40;88.10;;;;;;5030156;28;20328;-68
2023/01/12 08:29:58;;;;;;;14.70;2.05;;;17.40;88.00;;;;;;5034252;28;20725;-66
2023/01/12 08:32:47;;;;;;;14.00;2.58;;;17.50;88.10;;;;;;5034631;28;20205;-68
2023/01/12 08:35:35;;;;;;;13.82;2.45;;;17.60;88.00;;;;;;5033862;28;20683;-67
2023/01/12 08:38:24;;;;;;;7.93;1.80;;;17.50;96.50;;;;;;5033852;28;20693;-67
2023/01/12 08:44:19;;;;;;;6.38;2.20;;;17.60;87.70;;;;;;5034886;28;20367;-66
2023/01/12 08:47:17;;;;;;;8.88;1.77;;;17.70;87.80;;;;;;5033265;28;20205;-66
2023/01/12 08:50:07;;;;;;;8.15;2.25;;;17.60;88.20;;;;;;5033239;28;20690;-64
2023/01/12 08:52:56;;;;;;;9.70;2.33;;;17.60;88.70;;;;;;5034129;28;20271;-64
2023/01/12 08:55:51;;;;;;;11.27;1.92;;;17.60;89.30;;;;;;5034095;28;20785;-67
2023/01/12 08:58:42;;;;;;;13.15;2.88;;;17.60;99.30;;;;;;5015192;28;20209;-67
2023/01/12 09:01:31;;;;;;;14.13;2.40;;;17.60;89.10;;;;;;5031831;28;20248;-64
2023/01/12 09:04:20;;;;;;;9.68;2.20;;;17.60;89.30;;;;;;5032422;28;20222;-64
2023/01/12 09:07:11;;;;;;;13.38;2.33;;;17.60;89.50;;;;;;5031720;28;20288;-67
2023/01/12 09:09:59;;;;;;;12.82;3.33;;;17.60;89.60;;;;;;5033210;28;20355;-64
2023/01/12 09:12:47;;;;;;;10.15;2.70;;;17.50;89.60;;;;;;5033903;28;20232;-67
2023/01/12 09:15:35;;;;;;;7.30;2.22;;;17.50;89.70;;;;;;5032461;28;20569;-64
2023/01/12 09:18:23;;;;;;;11.20;2.92;;;17.40;99.30;;;;;;5034786;28;20233;-64
2023/01/12 09:21:14;;;;;;;9.50;2.78;;;17.50;90.00;;;;;;5032680;28;20230;-66
2023/01/12 09:24:03;;;;;;;14.80;3.00;;;17.60;90.00;;;;;;5031343;28;20606;-67
2023/01/12 09:26:51;;;;;;;8.88;2.35;;;17.90;90.10;;;;;;5032463;28;20336;-65
2023/01/12 09:29:39;;;;;;;11.77;2.45;;;17.90;90.00;;;;;;5033329;28;20367;-67
2023/01/12 09:32:27;;;;;;;7.38;1.90;;;18.00;89.90;;;;;;5033286;28;20202;-64
2023/01/12 09:35:23;;;;;;;11.32;2.85;;;18.20;89.60;;;;;;5033446;28;20217;-67
2023/01/12 09:38:12;;;;;;;10.35;2.00;;;18.30;89.20;;;;;;5033777;28;20249;-66
2023/01/12 09:41:08;;;;;;;16.67;3.53;;;18.50;88.70;;;;;;5032038;28;20800;-64
2023/01/12 09:47:08;;;;;;;8.15;2.35;;;18.80;87.90;;;;;;5016999;28;20202;-64
2023/01/12 09:50:01;;;;;;;9.13;2.10;;;18.90;87.70;;;;;;5033290;28;20319;-64
2023/01/12 09:53:01;;;;;;;14.25;3.40;;;19.10;87.60;;;;;;5033549;28;20208;-64
2023/01/12 09:56:01;;;;;;;17.80;2.33;;;19.20;87.40;;;;;;5033319;28;20202;-63
2023/01/12 09:59:08;;;;;;;14.45;2.58;;;19.30;87.30;;;;;;5014050;28;20223;-62
2023/01/12 10:01:56;;;;;;;16.13;3.75;;;19.40;86.90;;;;;;5014123;28;20245;-62
2023/01/12 10:04:47;;;;;;;8.88;3.00;;;19.50;86.50;;;;;;5022781;28;20236;-62
2023/01/12 10:07:36;;;;;;;10.77;3.35;;;19.60;86.50;;;;;;5032403;28;20194;-60
2023/01/12 10:10:24;;;;;;;11.88;3.05;;;19.70;86.10;;;;;;5032043;28;20218;-62
2023/01/12 10:13:15;;;;;;;10.07;3.72;;;19.70;86.00;;;;;;5037079;28;20225;-63
2023/01/12 10:16:11;;;;;;;18.63;3.15;;;19.80;85.80;;;;;;5038047;28;20208;-60
2023/01/12 10:19:07;;;;;;;13.38;2.60;;;19.80;85.70;;;;;;5036884;28;20224;-62
2023/01/12 10:21:57;;;;;;;9.90;2.45;;;19.80;85.70;;;;;;5035415;28;20225;-61
2023/01/12 10:24:46;;;;;;;10.65;3.00;;;19.80;85.70;;;;;;5034931;28;20205;-63
2023/01/12 10:27:38;;;;;;;13.02;2.88;;;19.80;85.50;;;;;;5033463;28;20216;-62
2023/01/12 10:30:30;;;;;;;13.27;2.97;;;19.80;85.30;;;;;;5034084;28;20227;-63
2023/01/12 10:33:20;;;;;;;10.00;2.95;;;19.80;85.20;;;;;;5033280;28;20201;-61
2023/01/12 10:36:11;;;;;;;17.63;2.88;;;19.80;85.10;;;;;;5033364;28;20615;-63
2023/01/12 10:39:02;;;;;;;9.57;2.10;;;19.80;85.20;;;;;;5032520;28;20228;-61
2023/01/12 10:43:17;;;;;;;15.38;2.88;;;19.80;85.30;;;;;;5032837;28;20328;-61
2023/01/12 10:45:23;;;;;;;12.93;2.45;;;19.70;85.30;;;;;;5033127;28;20230;-62
2023/01/12 10:48:21;;;;;;;11.55;2.78;;;19.70;85.50;;;;;;5032986;28;20198;-62
2023/01/12 10:51:23;;;;;;;14.25;3.13;;;19.70;85.60;;;;;;5032890;28;20285;-61
2023/01/12 10:54:16;;;;;;;16.08;3.42;;;19.70;86.30;;;;;;5034455;28;20197;-61
2023/01/12 10:57:12;;;;;;;18.95;3.42;;;19.80;85.80;;;;;;5024937;28;20652;-62
2023/01/12 11:00:04;;;;;;;15.68;2.85;;;19.80;85.70;;;;;;5031230;28;20222;-62
2023/01/12 11:02:52;;;;;;;12.52;2.38;;;19.80;85.60;;;;;;5031618;28;20273;-63
2023/01/12 11:05:43;;;;;;;11.57;3.50;;;19.90;85.60;;;;;;5012871;28;20774;-61
2023/01/12 11:08:31;;;;;;;10.55;2.30;;;19.70;94.30;;;;;;5022138;28;20281;-62
2023/01/12 11:11:28;;;;;;;13.57;3.63;;;20.00;85.50;;;;;;5032613;28;20202;-62
2023/01/12 11:14:26;;;;;;;11.95;3.38;;;20.00;85.20;;;;;;5032273;28;20206;-62
2023/01/12 11:17:30;;;;;;;11.00;2.70;;;20.00;85.10;;;;;;5031257;28;20230;-62
2023/01/12 11:20:23;;;;;;;11.93;3.45;;;20.00;85.00;;;;;;5033438;28;20230;-63
2023/01/12 11:23:17;;;;;;;13.13;2.90;;;20.00;85.00;;;;;;5031646;28;20221;-61
2023/01/12 11:26:16;;;;;;;9.93;2.30;;;20.00;85.00;;;;;;5012260;28;20236;-61
2023/01/12 11:29:22;;;;;;;10.80;2.60;;;20.00;84.80;;;;;;5012966;28;20341;-62
2023/01/12 11:32:16;;;;;;;7.47;2.67;;;20.00;84.80;;;;;;5019171;28;20260;-63
2023/01/12 11:35:17;;;;;;;13.88;2.85;;;20.00;85.50;;;;;;5031331;28;20357;-62
2023/01/12 11:38:11;;;;;;;13.30;2.88;;;20.00;85.00;;;;;;5032279;28;20289;-63
2023/01/12 11:41:03;;;;;;;14.65;2.67;;;20.00;85.00;;;;;;5032539;28;20202;-65
2023/01/12 11:43:59;;;;;;;12.23;2.95;;;20.00;84.90;;;;;;5032620;28;20238;-63
2023/01/12 11:46:53;;;;;;;12.70;2.83;;;20.10;85.00;;;;;;5033259;28;20249;-62
2023/01/12 11:49:49;;;;;;;16.90;3.08;;;20.10;84.80;;;;;;5033301;28;20558;-61
2023/01/12 11:52:39;;;;;;;12.88;2.78;;;20.20;84.80;;;;;;5033031;28;20209;-62
2023/01/12 11:55:47;;;;;;;6.32;2.75;;;20.20;84.70;;;;;;5032631;28;20259;-62
2023/01/12 11:58:47;;;;;;;14.93;3.10;;;20.20;95.90;;;;;;5031420;28;20285;-62
2023/01/12 12:01:43;;;;;;;22.60;3.53;;;20.30;84.40;;;;;;5032612;28;20279;-65
2023/01/12 12:04:45;;;;;;;13.93;3.05;;;20.30;84.30;;;;;;5035565;28;20252;-63
2023/01/12 12:07:44;;;;;;;15.48;3.38;;;20.00;83.90;;;;;;5035987;28;20304;-63
2023/01/12 12:10:42;;;;;;;16.70;3.72;;;20.40;84.10;;;;;;5035496;28;20237;-62
2023/01/12 12:13:35;;;;;;;17.17;3.00;;;20.40;84.00;;;;;;5035671;28;20205;-60
2023/01/12 12:16:31;;;;;;;8.32;3.08;;;20.40;84.00;;;;;;5036467;28;20629;-65
2023/01/12 12:19:28;;;;;;;13.98;3.30;;;20.30;83.90;;;;;;5035984;28;20221;-63
2023/01/12 12:22:32;;;;;;;16.30;2.97;;;20.40;84.00;;;;;;5036851;28;20363;-62
2023/01/12 12:25:33;;;;;;;17.55;3.20;;;20.30;83.90;;;;;;5036713;28;20202;-63
2023/01/12 12:28:40;;;;;;;5.60;2.42;;;20.30;83.90;;;;;;5031491;28;20297;-61
2023/01/12 12:31:45;;;;;;;18.65;3.22;;;20.30;84.00;;;;;;5036804;28;20581;-64
2023/01/12 12:35:01;;;;;;;12.07;2.65;;;20.20;84.00;;;;;;5036556;28;20197;-61
2023/01/12 12:37:59;;;;;;;11.20;2.95;;;20.20;84.20;;;;;;5035278;28;20248;-63
2023/01/12 12:47:55;;;;;;;10.60;2.28;;;20.30;84.50;;;;;;5036137;28;20637;-62
2023/01/12 12:50:49;;;;;;;13.00;3.38;;;20.20;84.50;;;;;;5035118;28;20241;-63
2023/01/12 12:53:41;;;;;;;13.20;2.58;;;20.20;84.50;;;;;;5035521;28;20256;-62
2023/01/12 12:56:31;;;;;;;9.77;2.30;;;20.20;84.60;;;;;;5035444;28;20202;-65
2023/01/12 12:59:53;;;;;;;12.13;2.97;;;20.30;84.60;;;;;;5035591;28;20297;-64
2023/01/12 13:02:54;;;;;;;18.05;3.25;;;20.30;84.50;;;;;;5034942;28;20288;-63
2023/01/12 13:05:45;;;;;;;12.43;2.63;;;20.30;84.50;;;;;;5015663;28;20202;-63
2023/01/12 13:08:35;;;;;;;13.85;2.60;;;20.10;96.10;;;;;;5014821;28;20210;-62
2023/01/12 13:11:49;;;;;;;6.63;2.33;;;20.30;84.30;;;;;;5015265;28;20699;-62
2023/01/12 13:14:39;;;;;;;12.70;2.78;;;20.30;84.30;;;;;;5023994;28;20610;-63
2023/01/12 13:17:42;;;;;;;8.55;2.25;;;20.30;85.00;;;;;;5034652;28;20285;-62
2023/01/12 13:20:51;;;;;;;10.88;2.15;;;20.30;84.30;;;;;;5035208;28;20241;-64
2023/01/12 13:23:49;;;;;;;9.15;2.22;;;20.20;84.20;;;;;;5034698;28;20281;-63
2023/01/12 13:26:40;;;;;;;10.48;2.15;;;20.20;84.30;;;;;;5034912;28;20687;-62
2023/01/12 13:29:43;;;;;;;11.02;2.63;;;20.20;84.50;;;;;;5034738;28;20225;-62
2023/01/12 13:32:55;;;;;;;10.63;2.95;;;20.20;84.60;;;;;;5032419;28;20285;-63
2023/01/12 13:36:08;;;;;;;8.77;2.00;;;20.10;84.70;;;;;;5034532;28;20284;-62
2023/01/12 13:39:07;;;;;;;11.15;3.10;;;20.20;84.70;;;;;;5021889;28;20218;-63
2023/01/12 13:45:02;;;;;;;6.75;2.55;;;20.30;84.70;;;;;;5022934;28;20210;-63
2023/01/12 13:47:52;;;;;;;9.05;2.20;;;20.30;84.70;;;;;;5034627;28;20263;-62
2023/01/12 13:50:47;;;;;;;11.60;1.98;;;20.30;84.50;;;;;;5034371;28;20249;-63
2023/01/12 13:53:37;;;;;;;7.57;2.22;;;20.40;84.50;;;;;;5033610;28;20233;-66
2023/01/12 13:56:25;;;;;;;6.93;2.38;;;20.40;84.60;;;;;;5034506;28;20291;-62
2023/01/12 13:59:18;;;;;;;9.02;2.40;;;20.40;84.40;;;;;;5033088;28;20780;-63
2023/01/12 14:02:17;;;;;;;7.10;2.28;;;20.40;84.40;;;;;;5033887;28;20281;-64
2023/01/12 14:05:30;;;;;;;8.50;2.65;;;20.40;84.20;;;;;;5033823;28;20194;-61
2023/01/12 14:08:48;;;;;;;10.20;1.80;;;20.40;84.20;;;;;;5034059;28;20245;-62
2023/01/12 14:11:54;;;;;;;7.20;2.08;;;20.40;84.00;;;;;;5031780;28;20205;-62
2023/01/12 14:18:13;;;;;;;5.03;1.70;;;20.30;83.90;;;;;;5032443;28;20200;-61
2023/01/12 14:21:01;;;;;;;8.57;1.55;;;20.30;84.10;;;;;;5033329;28;20209;-61
2023/01/12 14:23:50;;;;;;;8.48;2.00;;;20.30;84.10;;;;;;5032662;28;20202;-61
2023/01/12 14:26:38;;;;;;;10.75;1.58;;;20.30;84.20;;;;;;5032877;28;20205;-69
2023/01/12 14:29:27;;;;;;;6.18;1.60;;;20.20;84.30;;;;;;5032608;28;20300;-62
2023/01/12 14:32:15;;;;;;;12.23;1.80;;;20.20;84.50;;;;;;5033327;28;20242;-62
2023/01/12 14:35:03;;;;;;;7.10;1.60;;;20.20;84.50;;;;;;5034095;28;20336;-70
2023/01/12 14:37:54;;;;;;;9.13;2.30;;;20.20;84.70;;;;;;5033811;28;20277;-62
2023/01/12 14:40:49;;;;;;;15.70;2.70;;;20.20;84.70;;;;;;5033227;28;20710;-65
2023/01/12 14:46:47;;;;;;;8.80;2.70;;;20.30;84.60;;;;;;5034006;28;20235;-61
2023/01/12 14:49:37;;;;;;;8.25;2.00;;;20.30;84.60;;;;;;5033358;28;20221;-61
2023/01/12 14:52:30;;;;;;;3.70;1.70;;;20.40;84.60;;;;;;5032916;28;20198;-63
2023/01/12 14:55:19;;;;;;;6.20;1.80;;;20.40;84.40;;;;;;5034421;28;20316;-62
2023/01/12 14:58:20;;;;;;;9.48;1.75;;;20.40;84.30;;;;;;5033266;28;20201;-63
2023/01/12 15:01:09;;;;;;;6.18;1.55;;;20.50;84.30;;;;;;5030270;28;20296;-62
2023/01/12 15:03:58;;;;;;;10.70;1.73;;;20.50;84.20;;;;;;5032774;28;20213;-63
2023/01/12 15:06:47;;;;;;;8.23;1.65;;;20.50;84.10;;;;;;5031114;28;20228;-63
2023/01/12 15:09:51;;;;;;;6.05;1.63;;;20.50;84.10;;;;;;5031926;28;20634;-63
2023/01/12 15:12:44;;;;;;;6.88;2.22;;;20.50;83.90;;;;;;5032976;28;20339;-62
2023/01/12 15:27:57;;;;;;;11.35;1.65;;;20.30;84.10;;;;;;5032925;28;20314;-65
2023/01/12 15:30:46;;;;;;;8.15;1.92;;;20.30;84.30;;;;;;5031207;28;20295;-61
2023/01/12 15:33:35;;;;;;;10.48;1.77;;;20.30;84.50;;;;;;5031187;28;20245;-61
2023/01/12 15:36:24;;;;;;;18.55;2.38;;;20.30;84.50;;;;;;5029634;28;20198;-61
2023/01/12 15:39:13;;;;;;;5.00;1.98;;;20.30;84.60;;;;;;5030385;28;20214;-62
2023/01/12 15:42:17;;;;;;;5.97;1.95;;;20.30;84.40;;;;;;5029591;28;20194;-61
2023/01/12 15:45:17;;;;;;;11.80;1.70;;;20.40;84.30;;;;;;5029813;28;20267;-64
2023/01/12 15:48:07;;;;;;;9.88;2.15;;;20.40;84.10;;;;;;5029558;28;20265;-62
2023/01/12 15:50:56;;;;;;;4.38;1.27;;;20.50;84.10;;;;;;5031194;28;20202;-70
2023/01/12 15:53:44;;;;;;;7.15;1.60;;;20.50;84.20;;;;;;5031411;28;20666;-63
2023/01/12 15:56:33;;;;;;;5.78;1.40;;;20.50;84.20;;;;;;5033660;28;20695;-61